메인 페이지
METAR-TAF:

METAR-TAF

공항 :

Shelby County Airport

Alabaster, 앨라배마, 미국

위도: 33-10-42N, 경도: 086-46-54W, 고도: 178m

현재 날씨관측

예보는 21분 전, 00:53시(UTC)에 발표되었습니다.
무풍
온도 18°C
습도 77%
기압 1014 hPa
시정: 16.1km
맑음

METAR: KEET 210053Z AUTO 00000KT 10SM CLR 18/14 A2993 RMK AO2 SLP132 T01830144 $

시각: 20:14 (01:14 UTC)

예보

예보는 1 시간 35분 전, 23:39시(UTC)에 발표되었습니다.
예보 대상 시간: 21일 00시부터 21일 24시까지 (UTC)
여러 방향의 바람 2kt
시정: 10km
고도 8000ft 상공 구름 보통
21일 0300시부터 (UTC)
남동2kt
시정: 10km
고도 8000ft 상공 구름 조금
21일 1000시부터 (UTC)
남동3kt
시정: 9.7km
고도 400ft 상공 구름 많음
박무
21일 1400시부터 (UTC)
남남동8kt
시정: 10km
고도 4000ft 상공 구름 보통
고도 25000ft 상공 구름 많음
21일 1700시부터 (UTC)
7kt, 순간 최대 풍속 14kt
시정: 9.7km
고도 4000ft 상공 구름 많음
고도 13000ft 상공 흐림
약한소나기
확률 30%
21일 19시부터 21일 24시까지 (UTC)
시정: 8.0km
고도 1500ft 상공 흐림, 적란운.
뇌우, 약한비

TAF: KEET 202339Z 2100/2124 VRB02KT P6SM SCT080 FM210300 14002KT P6SM FEW080 FM211000 14003KT 6SM BR BKN004 FM211400 15008KT P6SM SCT040 BKN250 FM211700 18007G14KT 6SM -SHRA BKN040 OVC130 PROB30 2119/2124 5SM -TSRA OVC015CB

4,000개 이상의 공항 관측 자료 및 예보 (METAR 및 TAF 보고).

지도상에서 검색 가능한 기상관측소가 노란 점과 빨간 점으로 표시되어 있습니다.

기상관측소 명을 보려면 표시 위로 마우스를 이동하세요.

날씨 관측과 예보를 보려면 클릭하세요.

지도 변경 : 확대하려면 엑스 표시가 있는 녹색 버튼, 축소하려면 빼기 표시가 있는 녹색 버튼, 다음 페이지의 지도를 보려면 녹색 화살표를 클릭하세요.


METAR-TAF: